sensor_id;sensor_type;location;lat;lon;timestamp;P1;durP1;ratioP1;P2;durP2;ratioP2
71902;SDS011;59778;50.310;18.780;2023-03-31T00:08:54;33.37;;;16.27;;
71902;SDS011;59778;50.310;18.780;2023-03-31T00:24:15;26.67;;;15.50;;
71902;SDS011;59778;50.310;18.780;2023-03-31T00:39:37;33.50;;;17.00;;
71902;SDS011;59778;50.310;18.780;2023-03-31T00:55:00;27.60;;;15.97;;
71902;SDS011;59778;50.310;18.780;2023-03-31T01:10:25;31.50;;;15.90;;
71902;SDS011;59778;50.310;18.780;2023-03-31T01:41:30;30.13;;;16.20;;
71902;SDS011;59778;50.310;18.780;2023-03-31T01:57:05;34.53;;;17.87;;
71902;SDS011;59778;50.310;18.780;2023-03-31T02:12:28;30.70;;;15.77;;
71902;SDS011;59778;50.310;18.780;2023-03-31T02:27:54;25.40;;;13.97;;
71902;SDS011;59778;50.310;18.780;2023-03-31T02:43:20;25.33;;;13.97;;
71902;SDS011;59778;50.310;18.780;2023-03-31T03:14:25;24.67;;;14.43;;
71902;SDS011;59778;50.310;18.780;2023-03-31T03:29:51;29.63;;;16.00;;
71902;SDS011;59778;50.310;18.780;2023-03-31T03:45:13;35.60;;;17.13;;
71902;SDS011;59778;50.310;18.780;2023-03-31T04:00:34;30.73;;;14.53;;
71902;SDS011;59778;50.310;18.780;2023-03-31T04:15:57;22.20;;;12.20;;
71902;SDS011;59778;50.310;18.780;2023-03-31T04:31:19;24.10;;;12.47;;
71902;SDS011;59778;50.310;18.780;2023-03-31T04:46:44;21.70;;;10.83;;
71902;SDS011;59778;50.310;18.780;2023-03-31T05:02:06;23.37;;;10.43;;
71902;SDS011;59778;50.310;18.780;2023-03-31T05:17:30;23.33;;;10.20;;
71902;SDS011;59778;50.310;18.780;2023-03-31T05:32:52;19.67;;;10.70;;
71902;SDS011;59778;50.310;18.780;2023-03-31T05:48:13;16.50;;;8.17;;
71902;SDS011;59778;50.310;18.780;2023-03-31T06:03:35;18.43;;;9.37;;
71902;SDS011;59778;50.310;18.780;2023-03-31T06:18:58;22.10;;;8.70;;
71902;SDS011;59778;50.310;18.780;2023-03-31T06:34:20;17.77;;;8.47;;
71902;SDS011;59778;50.310;18.780;2023-03-31T06:49:41;16.77;;;6.53;;
71902;SDS011;59778;50.310;18.780;2023-03-31T07:05:03;14.43;;;5.40;;
71902;SDS011;59778;50.310;18.780;2023-03-31T07:20:25;12.40;;;4.80;;
71902;SDS011;59778;50.310;18.780;2023-03-31T07:35:47;12.00;;;4.23;;
71902;SDS011;59778;50.310;18.780;2023-03-31T07:51:09;12.97;;;5.03;;
71902;SDS011;59778;50.310;18.780;2023-03-31T08:06:30;8.57;;;3.47;;
71902;SDS011;59778;50.310;18.780;2023-03-31T08:21:52;9.40;;;4.63;;
71902;SDS011;59778;50.310;18.780;2023-03-31T08:37:13;16.23;;;6.50;;
71902;SDS011;59778;50.310;18.780;2023-03-31T08:52:36;9.73;;;3.40;;
71902;SDS011;59778;50.310;18.780;2023-03-31T09:08:10;11.07;;;3.40;;
71902;SDS011;59778;50.310;18.780;2023-03-31T09:23:38;8.20;;;3.27;;
71902;SDS011;59778;50.310;18.780;2023-03-31T09:39:08;7.67;;;3.30;;
71902;SDS011;59778;50.310;18.780;2023-03-31T09:54:34;11.77;;;3.00;;
71902;SDS011;59778;50.310;18.780;2023-03-31T10:09:58;8.83;;;2.90;;
71902;SDS011;59778;50.310;18.780;2023-03-31T10:25:22;9.70;;;3.60;;
71902;SDS011;59778;50.310;18.780;2023-03-31T10:40:52;11.73;;;4.00;;
71902;SDS011;59778;50.310;18.780;2023-03-31T11:58:44;13.10;;;3.43;;
71902;SDS011;59778;50.310;18.780;2023-03-31T12:30:04;10.83;;;1.87;;
71902;SDS011;59778;50.310;18.780;2023-03-31T12:45:32;9.30;;;1.50;;
71902;SDS011;59778;50.310;18.780;2023-03-31T13:16:34;8.00;;;1.90;;
71902;SDS011;59778;50.310;18.780;2023-03-31T14:18:44;15.60;;;3.37;;
71902;SDS011;59778;50.310;18.780;2023-03-31T14:49:38;31.17;;;9.40;;
71902;SDS011;59778;50.310;18.780;2023-03-31T15:05:04;21.27;;;6.40;;
71902;SDS011;59778;50.310;18.780;2023-03-31T15:20:30;26.40;;;11.90;;
71902;SDS011;59778;50.310;18.780;2023-03-31T15:35:56;31.40;;;12.80;;
71902;SDS011;59778;50.310;18.780;2023-03-31T16:06:55;25.03;;;9.53;;
71902;SDS011;59778;50.310;18.780;2023-03-31T16:22:26;32.23;;;15.13;;
71902;SDS011;59778;50.310;18.780;2023-03-31T16:37:55;34.70;;;14.77;;
71902;SDS011;59778;50.310;18.780;2023-03-31T16:53:17;52.67;;;23.57;;
71902;SDS011;59778;50.310;18.780;2023-03-31T17:08:39;49.47;;;20.50;;
71902;SDS011;59778;50.310;18.780;2023-03-31T17:24:04;32.70;;;11.33;;
71902;SDS011;59778;50.310;18.780;2023-03-31T17:39:26;9.40;;;3.10;;
71902;SDS011;59778;50.310;18.780;2023-03-31T17:54:47;13.70;;;4.43;;
71902;SDS011;59778;50.310;18.780;2023-03-31T18:10:09;18.93;;;7.23;;
71902;SDS011;59778;50.310;18.780;2023-03-31T18:25:30;63.00;;;14.97;;
71902;SDS011;59778;50.310;18.780;2023-03-31T18:40:52;22.93;;;9.33;;
71902;SDS011;59778;50.310;18.780;2023-03-31T18:56:14;75.53;;;34.23;;
71902;SDS011;59778;50.310;18.780;2023-03-31T19:11:35;115.43;;;50.03;;
71902;SDS011;59778;50.310;18.780;2023-03-31T19:26:58;73.87;;;34.70;;
71902;SDS011;59778;50.310;18.780;2023-03-31T19:42:20;79.33;;;32.53;;
71902;SDS011;59778;50.310;18.780;2023-03-31T19:57:41;169.10;;;54.97;;
71902;SDS011;59778;50.310;18.780;2023-03-31T20:13:02;89.13;;;38.97;;
71902;SDS011;59778;50.310;18.780;2023-03-31T20:28:24;57.80;;;27.53;;
71902;SDS011;59778;50.310;18.780;2023-03-31T20:43:45;23.50;;;10.07;;
71902;SDS011;59778;50.310;18.780;2023-03-31T20:59:11;14.53;;;3.90;;
71902;SDS011;59778;50.310;18.780;2023-03-31T21:14:33;11.10;;;3.37;;
71902;SDS011;59778;50.310;18.780;2023-03-31T21:29:54;12.17;;;3.27;;
71902;SDS011;59778;50.310;18.780;2023-03-31T21:45:16;8.20;;;3.30;;
71902;SDS011;59778;50.310;18.780;2023-03-31T22:00:37;12.53;;;3.00;;
71902;SDS011;59778;50.310;18.780;2023-03-31T22:15:59;16.17;;;4.33;;
71902;SDS011;59778;50.310;18.780;2023-03-31T22:31:21;8.17;;;2.43;;
71902;SDS011;59778;50.310;18.780;2023-03-31T22:46:43;8.17;;;2.00;;
71902;SDS011;59778;50.310;18.780;2023-03-31T23:02:09;8.53;;;2.13;;
71902;SDS011;59778;50.310;18.780;2023-03-31T23:17:31;9.63;;;2.43;;
71902;SDS011;59778;50.310;18.780;2023-03-31T23:32:52;17.90;;;4.97;;
71902;SDS011;59778;50.310;18.780;2023-03-31T23:48:13;11.33;;;3.60;;
